createdAt,value
2018-05-08T00:00:54.034Z,0
2018-05-08T00:01:54.700Z,0
2018-05-08T00:02:55.367Z,0
2018-05-08T00:03:56.034Z,0
2018-05-08T00:04:56.699Z,0
2018-05-08T00:05:57.365Z,0
2018-05-08T00:06:58.032Z,0
2018-05-08T00:07:58.697Z,0
2018-05-08T00:08:59.362Z,0
2018-05-08T00:10:00.028Z,0
2018-05-08T00:11:00.692Z,0
2018-05-08T00:12:01.358Z,0
2018-05-08T00:13:02.024Z,0
2018-05-08T00:14:02.688Z,0
2018-05-08T00:15:03.353Z,0
2018-05-08T00:16:04.019Z,0
2018-05-08T00:17:04.684Z,0
2018-05-08T00:18:05.379Z,0
2018-05-08T00:19:06.015Z,0
2018-05-08T00:20:06.681Z,0
2018-05-08T00:21:07.345Z,0
2018-05-08T00:22:08.015Z,0
2018-05-08T00:23:08.680Z,0
2018-05-08T00:24:09.351Z,0
2018-05-08T00:25:10.013Z,0
2018-05-08T00:26:10.679Z,0
2018-05-08T00:27:11.344Z,0
2018-05-08T00:28:12.010Z,0
2018-05-08T00:29:12.682Z,0
2018-05-08T00:30:13.340Z,0
2018-05-08T00:31:14.004Z,0
2018-05-08T00:32:14.669Z,0
2018-05-08T00:33:15.335Z,0
2018-05-08T00:34:15.999Z,0
2018-05-08T00:35:16.664Z,0
2018-05-08T00:36:17.330Z,0
2018-05-08T00:37:17.996Z,0
2018-05-08T00:38:18.663Z,0
2018-05-08T00:39:19.329Z,0
2018-05-08T00:40:19.998Z,0
2018-05-08T00:41:20.660Z,0
2018-05-08T00:42:21.326Z,0
2018-05-08T00:43:21.998Z,0
2018-05-08T00:44:22.656Z,0
2018-05-08T00:45:23.321Z,0
2018-05-08T00:46:23.985Z,0
2018-05-08T00:47:24.651Z,0
2018-05-08T00:48:25.315Z,0
2018-05-08T00:52:27.594Z,0
2018-05-08T00:53:28.259Z,0
2018-05-08T00:54:28.921Z,0
2018-05-08T00:55:29.588Z,0
2018-05-08T00:56:30.254Z,0
2018-05-08T00:57:30.921Z,0
2018-05-08T00:58:31.590Z,0
2018-05-08T00:59:32.256Z,0
2018-05-08T01:00:32.924Z,0
2018-05-08T01:01:33.632Z,0
2018-05-08T01:02:34.339Z,0
2018-05-08T01:03:35.001Z,0
2018-05-08T01:04:35.706Z,0
2018-05-08T01:05:36.372Z,0
2018-05-08T01:06:37.037Z,0
2018-05-08T01:07:37.754Z,0
2018-05-08T01:08:38.422Z,0
2018-05-08T01:09:39.091Z,0
2018-05-08T01:10:39.753Z,0
2018-05-08T01:11:40.529Z,0
2018-05-08T01:12:41.926Z,0
2018-05-08T01:13:42.631Z,0
2018-05-08T01:14:43.296Z,0
2018-05-08T01:15:43.968Z,0
2018-05-08T01:16:44.668Z,0
2018-05-08T01:17:45.339Z,0
2018-05-08T01:18:46.001Z,0
2018-05-08T01:19:46.668Z,0
2018-05-08T01:20:47.333Z,0
2018-05-08T01:21:47.999Z,0
2018-05-08T01:22:48.664Z,0
2018-05-08T01:23:49.329Z,0
2018-05-08T01:24:49.995Z,0
2018-05-08T01:25:50.662Z,0
2018-05-08T01:26:51.329Z,0
2018-05-08T01:27:51.996Z,0
2018-05-08T01:28:52.663Z,0
2018-05-08T01:29:53.329Z,0
2018-05-08T01:30:53.995Z,0
2018-05-08T01:31:54.660Z,0
2018-05-08T01:32:55.326Z,0
2018-05-08T01:33:55.993Z,0
2018-05-08T01:34:56.661Z,0
2018-05-08T01:35:57.328Z,0
2018-05-08T01:36:57.993Z,0
2018-05-08T01:37:58.660Z,0
2018-05-08T01:38:59.326Z,0
2018-05-08T01:39:59.991Z,0
2018-05-08T01:41:00.657Z,0
2018-05-08T01:42:01.327Z,0
2018-05-08T01:43:01.992Z,0
2018-05-08T01:44:02.655Z,0
2018-05-08T01:45:03.327Z,0
2018-05-08T01:46:03.992Z,0
2018-05-08T01:47:04.656Z,0
2018-05-08T01:48:05.322Z,0
2018-05-08T01:49:05.991Z,0
2018-05-08T01:50:06.691Z,0
2018-05-08T01:51:07.357Z,0
2018-05-08T01:52:08.022Z,0
2018-05-08T01:53:08.686Z,0
2018-05-08T01:54:09.352Z,0
2018-05-08T01:55:10.019Z,0
2018-05-08T01:56:10.684Z,0
2018-05-08T01:57:11.350Z,0
2018-05-08T01:58:12.019Z,0
2018-05-08T01:59:12.683Z,0
2018-05-08T02:00:13.347Z,0
2018-05-08T02:01:14.019Z,0
2018-05-08T02:02:14.717Z,0
2018-05-08T02:03:15.383Z,0
2018-05-08T02:04:16.048Z,0
2018-05-08T02:05:16.714Z,0
2018-05-08T02:06:17.379Z,0
2018-05-08T02:07:18.047Z,0
2018-05-08T02:08:18.715Z,0
2018-05-08T02:09:19.382Z,0
2018-05-08T02:10:20.048Z,0
2018-05-08T02:11:20.713Z,0
2018-05-08T02:12:21.379Z,0
2018-05-08T02:13:22.046Z,0
2018-05-08T02:14:22.715Z,0
2018-05-08T02:15:23.378Z,0
2018-05-08T02:16:24.045Z,0
2018-05-08T02:17:24.709Z,0
2018-05-08T02:18:25.379Z,0
2018-05-08T02:19:26.041Z,0
2018-05-08T02:20:26.720Z,0
2018-05-08T02:21:27.373Z,0
2018-05-08T02:22:28.037Z,0
2018-05-08T02:23:28.707Z,0
2018-05-08T02:24:29.372Z,0
2018-05-08T02:25:30.041Z,0
2018-05-08T02:26:30.747Z,0
2018-05-08T02:27:31.411Z,0
2018-05-08T02:28:32.076Z,0
2018-05-08T02:29:32.742Z,0
2018-05-08T02:30:33.411Z,0
2018-05-08T02:31:34.073Z,0
2018-05-08T02:32:34.739Z,0
2018-05-08T02:33:35.405Z,0
2018-05-08T02:34:36.072Z,0
2018-05-08T02:35:36.738Z,0
2018-05-08T02:36:37.404Z,0
2018-05-08T02:37:38.071Z,0
2018-05-08T02:38:38.734Z,0
2018-05-08T02:39:39.400Z,0
2018-05-08T02:40:40.065Z,0
2018-05-08T02:41:40.732Z,0
2018-05-08T02:42:41.404Z,0
2018-05-08T02:43:42.105Z,0
2018-05-08T02:44:42.810Z,0
2018-05-08T02:45:43.477Z,0
2018-05-08T02:46:44.143Z,0
2018-05-08T02:47:44.809Z,0
2018-05-08T02:48:45.474Z,0
2018-05-08T02:49:46.140Z,0
2018-05-08T02:50:46.806Z,0
2018-05-08T02:51:47.471Z,0
2018-05-08T02:52:48.146Z,0
2018-05-08T02:53:48.842Z,0
2018-05-08T02:54:49.508Z,0
2018-05-08T02:55:50.173Z,0
2018-05-08T02:56:50.838Z,0
2018-05-08T02:57:51.507Z,0
2018-05-08T02:58:52.257Z,0
2018-05-08T02:59:52.926Z,0
2018-05-08T03:00:53.589Z,0
2018-05-08T03:01:54.256Z,0
2018-05-08T03:02:54.921Z,4
2018-05-08T03:03:55.591Z,0
2018-05-08T03:04:56.306Z,0
2018-05-08T03:05:56.960Z,4
2018-05-08T03:06:57.625Z,0
2018-05-08T03:07:58.290Z,4
2018-05-08T03:08:58.955Z,8
2018-05-08T03:09:59.621Z,4
2018-05-08T03:11:00.286Z,4
2018-05-08T03:12:00.953Z,8
2018-05-08T03:13:01.620Z,8
2018-05-08T03:14:02.536Z,12
2018-05-08T03:15:03.202Z,12
2018-05-08T03:16:03.868Z,16
2018-05-08T03:17:04.534Z,12
2018-05-08T03:18:05.201Z,16
2018-05-08T03:19:05.866Z,20
2018-05-08T03:20:06.534Z,24
2018-05-08T03:21:07.202Z,24
2018-05-08T03:22:07.873Z,28
2018-05-08T03:23:08.537Z,32
2018-05-08T03:24:09.230Z,40
2018-05-08T03:25:09.870Z,40
2018-05-08T03:26:10.537Z,48
2018-05-08T03:27:11.204Z,52
2018-05-08T03:28:11.871Z,60
2018-05-08T03:29:12.537Z,68
2018-05-08T03:30:13.203Z,72
2018-05-08T03:31:13.869Z,80
2018-05-08T03:32:14.542Z,88
2018-05-08T03:33:15.206Z,96
2018-05-08T03:34:15.873Z,108
2018-05-08T03:35:16.541Z,120
2018-05-08T03:36:17.208Z,128
2018-05-08T03:37:17.878Z,140
2018-05-08T03:38:18.544Z,152
2018-05-08T03:39:19.212Z,168
2018-05-08T03:40:19.879Z,176
2018-05-08T03:41:20.550Z,192
2018-05-08T03:42:21.221Z,204
2018-05-08T03:43:21.885Z,220
2018-05-08T03:44:22.552Z,236
2018-05-08T03:45:23.219Z,252
2018-05-08T03:46:23.888Z,268
2018-05-08T03:47:24.592Z,288
2018-05-08T03:48:25.260Z,304
2018-05-08T03:49:25.926Z,324
2018-05-08T03:50:26.594Z,344
2018-05-08T03:51:27.264Z,360
2018-05-08T03:52:27.934Z,380
2018-05-08T03:53:28.604Z,400
2018-05-08T03:54:29.312Z,420
2018-05-08T03:55:30.017Z,440
2018-05-08T03:56:30.686Z,460
2018-05-08T03:57:31.355Z,484
2018-05-08T03:58:32.023Z,504
2018-05-08T03:59:32.742Z,520
2018-05-08T04:00:33.411Z,548
2018-05-08T04:01:34.079Z,568
2018-05-08T04:02:34.747Z,592
2018-05-08T04:03:35.417Z,612
2018-05-08T04:04:36.086Z,636
2018-05-08T04:05:36.754Z,656
2018-05-08T04:06:37.422Z,676
2018-05-08T04:07:38.092Z,696
2018-05-08T04:08:38.817Z,720
2018-05-08T04:09:39.463Z,740
2018-05-08T04:10:40.169Z,764
2018-05-08T04:11:40.837Z,784
2018-05-08T04:12:41.507Z,808
2018-05-08T04:13:42.175Z,828
2018-05-08T04:14:42.844Z,848
2018-05-08T04:15:43.516Z,872
2018-05-08T04:16:44.220Z,888
2018-05-08T04:17:44.889Z,912
2018-05-08T04:18:45.559Z,932
2018-05-08T04:19:46.227Z,948
2018-05-08T04:20:46.933Z,968
2018-05-08T04:21:47.603Z,992
2018-05-08T04:22:48.272Z,1008
2018-05-08T04:23:48.942Z,1032
2018-05-08T04:24:49.614Z,1048
2018-05-08T04:25:50.318Z,1068
2018-05-08T04:26:50.990Z,1088
2018-05-08T04:27:51.659Z,1104
2018-05-08T04:28:52.329Z,1124
2018-05-08T04:29:53.000Z,1144
2018-05-08T04:30:53.673Z,1164
2018-05-08T04:31:54.339Z,1184
2018-05-08T04:32:55.010Z,1204
2018-05-08T04:33:55.677Z,1224
2018-05-08T04:34:56.352Z,1244
2018-05-08T04:35:57.057Z,1264
2018-05-08T04:36:57.726Z,1284
2018-05-08T04:37:58.397Z,1300
2018-05-08T04:38:59.067Z,1324
2018-05-08T04:39:59.738Z,1344
2018-05-08T04:41:00.407Z,1364
2018-05-08T04:42:01.077Z,1380
2018-05-08T04:43:01.747Z,1396
2018-05-08T04:44:02.416Z,1408
2018-05-08T04:45:03.136Z,1424
2018-05-08T04:46:03.806Z,1436
2018-05-08T04:47:04.480Z,1452
2018-05-08T04:48:05.147Z,1468
2018-05-08T04:49:05.815Z,1484
2018-05-08T04:50:06.486Z,1504
2018-05-08T04:51:07.158Z,1520
2018-05-08T04:52:07.827Z,1540
2018-05-08T04:53:08.498Z,1560
2018-05-08T04:54:09.168Z,1576
2018-05-08T04:55:09.877Z,1592
2018-05-08T04:56:10.547Z,1608
2018-05-08T04:57:11.221Z,1620
2018-05-08T04:58:11.887Z,1640
2018-05-08T04:59:12.558Z,1656
2018-05-08T05:00:13.229Z,1664
2018-05-08T05:01:13.897Z,1676
2018-05-08T05:02:14.568Z,1696
2018-05-08T05:03:15.238Z,1708
2018-05-08T05:04:15.911Z,1732
2018-05-08T05:05:16.580Z,1744
2018-05-08T05:06:17.251Z,1756
2018-05-08T05:07:17.920Z,1772
2018-05-08T05:08:18.590Z,1788
2018-05-08T05:09:19.259Z,1800
2018-05-08T05:10:19.931Z,1816
2018-05-08T05:11:20.601Z,1832
2018-05-08T05:12:21.271Z,1840
2018-05-08T05:13:21.942Z,1856
2018-05-08T05:14:22.611Z,1872
2018-05-08T05:15:23.292Z,1884
2018-05-08T05:16:23.990Z,1896
2018-05-08T05:17:24.661Z,1904
2018-05-08T05:18:25.335Z,1912
2018-05-08T05:19:26.002Z,1916
2018-05-08T05:20:26.673Z,1920
2018-05-08T05:21:27.380Z,1924
2018-05-08T05:22:28.049Z,1932
2018-05-08T05:23:28.726Z,1940
2018-05-08T05:24:29.471Z,1952
2018-05-08T05:25:30.063Z,1960
2018-05-08T05:26:30.735Z,1976
2018-05-08T05:27:31.406Z,1992
2018-05-08T05:28:32.112Z,2008
2018-05-08T05:29:32.783Z,2016
2018-05-08T05:30:33.454Z,2036
2018-05-08T05:31:34.156Z,2052
2018-05-08T05:32:34.796Z,2068
2018-05-08T05:33:35.467Z,2092
2018-05-08T05:34:36.137Z,2116
2018-05-08T05:35:36.807Z,2136
2018-05-08T05:36:37.515Z,2164
2018-05-08T05:37:38.188Z,2188
2018-05-08T05:38:38.857Z,2208
2018-05-08T05:39:39.529Z,2232
2018-05-08T05:40:40.199Z,2252
2018-05-08T05:41:40.871Z,2276
2018-05-08T05:42:41.676Z,2304
2018-05-08T05:43:42.248Z,2324
2018-05-08T05:44:42.921Z,2344
2018-05-08T05:45:43.592Z,2368
2018-05-08T05:46:44.263Z,2396
2018-05-08T05:47:44.933Z,2420
2018-05-08T05:48:45.609Z,2436
2018-05-08T05:49:46.312Z,2456
2018-05-08T05:50:46.984Z,2468
2018-05-08T05:51:47.655Z,2484
2018-05-08T05:52:48.325Z,2496
2018-05-08T05:53:48.996Z,2516
2018-05-08T05:54:49.666Z,2532
2018-05-08T05:55:50.336Z,2564
2018-05-08T05:56:51.009Z,2600
2018-05-08T05:57:51.719Z,2628
2018-05-08T05:58:52.403Z,2652
2018-05-08T05:59:53.061Z,2668
2018-05-08T06:00:53.731Z,2696
2018-05-08T06:01:54.402Z,2724
2018-05-08T06:02:55.076Z,2752
2018-05-08T06:03:55.785Z,2780
2018-05-08T06:04:56.457Z,2812
2018-05-08T06:05:57.126Z,2844
2018-05-08T06:06:57.797Z,2888
2018-05-08T06:07:58.468Z,2920
2018-05-08T06:08:59.139Z,2952
2018-05-08T06:09:59.812Z,2996
2018-05-08T06:11:00.484Z,3044
2018-05-08T06:12:01.235Z,3076
2018-05-08T06:13:01.825Z,3124
2018-05-08T06:14:02.496Z,3172
2018-05-08T06:15:03.166Z,3232
2018-05-08T06:16:03.836Z,3308
2018-05-08T06:17:04.510Z,3408
2018-05-08T06:18:05.181Z,3528
2018-05-08T06:19:05.854Z,3700
2018-05-08T06:20:06.526Z,3936
2018-05-08T06:21:07.198Z,12440
2018-05-08T06:22:07.873Z,36288
2018-05-08T06:23:08.547Z,51072
2018-05-08T06:24:09.222Z,58112
2018-05-08T06:25:09.905Z,69184
2018-05-08T06:26:10.568Z,76608
2018-05-08T06:27:11.246Z,84544
2018-05-08T06:28:11.960Z,83936
2018-05-08T06:29:12.631Z,87520
2018-05-08T06:30:13.306Z,96544
2018-05-08T06:31:13.983Z,90464
2018-05-08T06:32:14.659Z,83776
2018-05-08T06:33:15.336Z,82016
2018-05-08T06:34:16.013Z,83680
2018-05-08T06:35:16.693Z,89472
2018-05-08T06:36:17.369Z,89600
2018-05-08T06:37:18.048Z,83680
2018-05-08T06:38:18.726Z,86720
2018-05-08T06:39:19.405Z,86496
2018-05-08T06:40:20.083Z,86784
2018-05-08T06:41:20.802Z,88384
2018-05-08T06:42:21.485Z,87360
2018-05-08T06:43:22.203Z,87488
2018-05-08T06:44:22.936Z,83168
2018-05-08T06:45:23.560Z,84096
2018-05-08T06:46:24.240Z,92768
2018-05-08T06:47:24.922Z,92640
2018-05-08T06:48:25.603Z,82912
2018-05-08T06:49:26.287Z,79648
2018-05-08T06:50:26.967Z,82336
2018-05-08T06:51:27.698Z,81760
2018-05-08T06:52:28.381Z,83232
2018-05-08T06:53:29.100Z,88064
2018-05-08T06:54:29.822Z,84672
2018-05-08T06:55:30.505Z,85248
2018-05-08T06:56:31.188Z,86912
2018-05-08T06:57:31.874Z,81792
2018-05-08T06:58:32.556Z,83552
2018-05-08T06:59:33.239Z,81568
2018-05-08T07:00:33.925Z,76480
2018-05-08T07:01:34.644Z,76224
2018-05-08T07:02:35.367Z,71680
2018-05-08T07:03:36.051Z,84352
2018-05-08T07:04:36.735Z,78624
2018-05-08T07:05:37.420Z,79616
2018-05-08T07:06:38.103Z,84032
2018-05-08T07:07:38.789Z,83552
2018-05-08T07:08:39.473Z,77696
2018-05-08T07:09:40.159Z,81952
2018-05-08T07:10:40.842Z,82272
2018-05-08T07:11:41.528Z,82592
2018-05-08T07:12:42.214Z,81856
2018-05-08T07:13:42.899Z,85152
2018-05-08T07:14:43.585Z,82080
2018-05-08T07:15:44.348Z,80576
2018-05-08T07:16:44.961Z,77792
2018-05-08T07:17:45.642Z,80256
2018-05-08T07:18:46.367Z,81088
2018-05-08T07:19:47.053Z,78400
2018-05-08T07:20:47.738Z,81856
2018-05-08T07:21:48.425Z,80736
2018-05-08T07:22:49.109Z,79104
2018-05-08T07:23:49.797Z,76224
2018-05-08T07:24:50.479Z,76864
2018-05-08T07:25:51.167Z,79360
2018-05-08T07:26:51.891Z,80224
2018-05-08T07:27:52.575Z,76192
2018-05-08T07:28:53.261Z,71744
2018-05-08T07:29:53.989Z,73472
2018-05-08T07:30:54.635Z,75872
2018-05-08T07:31:55.316Z,71680
2018-05-08T07:32:56.000Z,68288
2018-05-08T07:33:56.690Z,68000
2018-05-08T07:34:57.371Z,71232
2018-05-08T07:35:58.060Z,72224
2018-05-08T07:36:58.741Z,68992
2018-05-08T07:37:59.426Z,66784
2018-05-08T07:39:00.112Z,66720
2018-05-08T07:40:00.795Z,65120
2018-05-08T07:41:01.481Z,63488
2018-05-08T07:42:02.167Z,65344
2018-05-08T07:43:02.852Z,67328
2018-05-08T07:44:03.535Z,63136
2018-05-08T07:45:04.220Z,64128
2018-05-08T07:46:04.906Z,61984
2018-05-08T07:47:05.641Z,56480
2018-05-08T07:48:06.325Z,47712
2018-05-08T07:49:07.017Z,31680
2018-05-08T07:50:07.696Z,13524
2018-05-08T07:51:08.383Z,10624
2018-05-08T07:52:09.064Z,9952
2018-05-08T07:53:09.749Z,9456
2018-05-08T07:54:10.432Z,9044
2018-05-08T07:55:11.117Z,8640
2018-05-08T07:56:11.801Z,8300
2018-05-08T07:57:12.535Z,8044
2018-05-08T07:58:13.219Z,7780
2018-05-08T07:59:13.903Z,7560
2018-05-08T08:00:14.588Z,7336
2018-05-08T08:01:15.275Z,7144
2018-05-08T08:02:16.005Z,6956
2018-05-08T08:03:16.770Z,6792
2018-05-08T08:04:17.375Z,6616
2018-05-08T08:05:18.065Z,6492
2018-05-08T08:06:18.742Z,6368
2018-05-08T08:07:19.434Z,6260
2018-05-08T08:08:20.146Z,6172
2018-05-08T08:09:20.830Z,6104
2018-05-08T08:10:21.515Z,6012
2018-05-08T08:11:22.198Z,5948
2018-05-08T08:12:22.955Z,5872
2018-05-08T08:13:23.567Z,5792
2018-05-08T08:14:24.256Z,5748
2018-05-08T08:15:24.936Z,5688
2018-05-08T08:16:25.621Z,5640
2018-05-08T08:17:26.305Z,5576
2018-05-08T08:18:26.997Z,5528
2018-05-08T08:19:27.711Z,5472
2018-05-08T08:20:28.394Z,5436
2018-05-08T08:21:29.080Z,5400
2018-05-08T08:22:29.763Z,5356
2018-05-08T08:23:30.485Z,5308
2018-05-08T08:24:31.169Z,5268
2018-05-08T08:25:31.856Z,5220
2018-05-08T08:26:32.535Z,5200
2018-05-08T08:27:33.220Z,5184
2018-05-08T08:28:33.906Z,5164
2018-05-08T08:29:34.590Z,5124
2018-05-08T08:30:35.275Z,5104
2018-05-08T08:31:35.959Z,5088
2018-05-08T08:32:36.644Z,5060
2018-05-08T08:33:37.330Z,5040
2018-05-08T08:34:38.015Z,5028
2018-05-08T08:35:38.775Z,5012
2018-05-08T08:36:39.380Z,4996
2018-05-08T08:37:40.065Z,4960
2018-05-08T08:38:40.750Z,4936
2018-05-08T08:39:41.433Z,4900
2018-05-08T08:40:42.117Z,4872
2018-05-08T08:41:42.800Z,4956
2018-05-08T08:42:43.483Z,4908
2018-05-08T08:43:44.168Z,4868
2018-05-08T08:44:44.851Z,4768
2018-05-08T08:45:45.538Z,4736
2018-05-08T08:46:46.223Z,4656
2018-05-08T08:47:47.067Z,4644
2018-05-08T08:48:47.640Z,4604
2018-05-08T08:49:48.323Z,4580
2018-05-08T08:50:49.009Z,4548
2018-05-08T08:51:49.692Z,4520
2018-05-08T08:52:50.377Z,4500
2018-05-08T08:53:51.100Z,4460
2018-05-08T08:54:51.785Z,4428
2018-05-08T08:55:52.470Z,4408
2018-05-08T08:56:53.152Z,4388
2018-05-08T08:57:53.837Z,4360
2018-05-08T08:58:54.522Z,4340
2018-05-08T08:59:55.210Z,4324
2018-05-08T09:00:55.889Z,4300
2018-05-08T09:01:56.575Z,4272
2018-05-08T09:02:57.332Z,4244
2018-05-08T09:03:57.976Z,4212
2018-05-08T09:04:58.656Z,4172
2018-05-08T09:05:59.341Z,4132
2018-05-08T09:07:00.025Z,4076
2018-05-08T09:08:00.710Z,4052
2018-05-08T09:09:01.393Z,4032
2018-05-08T09:10:02.076Z,4008
2018-05-08T09:11:02.761Z,3984
2018-05-08T09:12:03.453Z,3976
2018-05-08T09:13:04.166Z,3968
2018-05-08T09:14:04.888Z,3956
2018-05-08T09:15:05.574Z,3964
2018-05-08T09:16:06.255Z,3964
2018-05-08T09:17:06.937Z,3976
2018-05-08T09:18:07.624Z,3952
2018-05-08T09:19:08.306Z,3944
2018-05-08T09:20:08.990Z,3944
2018-05-08T09:21:09.674Z,3944
2018-05-08T09:22:10.395Z,3940
2018-05-08T09:23:11.077Z,3932
2018-05-08T09:24:11.764Z,3928
2018-05-08T09:25:12.447Z,3920
2018-05-08T09:26:13.130Z,3920
2018-05-08T09:27:13.814Z,3892
2018-05-08T09:28:14.498Z,3884
2018-05-08T09:29:15.182Z,3868
2018-05-08T09:30:15.867Z,3860
2018-05-08T09:31:16.550Z,3864
2018-05-08T09:32:17.233Z,3876
2018-05-08T09:33:17.916Z,3896
2018-05-08T09:34:18.600Z,3884
2018-05-08T09:35:19.285Z,3880
2018-05-08T09:36:19.968Z,3872
2018-05-08T09:37:20.652Z,3880
2018-05-08T09:38:21.373Z,3872
2018-05-08T09:39:22.055Z,3884
2018-05-08T09:40:22.740Z,3896
2018-05-08T09:41:23.422Z,3896
2018-05-08T09:42:24.105Z,3900
2018-05-08T09:43:24.788Z,3900
2018-05-08T09:44:25.472Z,3912
2018-05-08T09:45:26.155Z,3924
2018-05-08T09:46:26.841Z,3928
2018-05-08T09:47:27.525Z,3912
2018-05-08T09:48:28.207Z,3892
2018-05-08T09:49:28.892Z,3892
2018-05-08T09:50:29.575Z,3872
2018-05-08T09:51:30.264Z,3856
2018-05-08T09:52:30.944Z,3852
2018-05-08T09:53:31.627Z,3876
2018-05-08T09:54:32.311Z,3860
2018-05-08T09:55:32.994Z,3852
2018-05-08T09:56:33.679Z,3856
2018-05-08T09:57:34.363Z,3868
2018-05-08T09:58:35.047Z,3860
2018-05-08T09:59:35.731Z,3836
2018-05-08T10:00:36.414Z,3836
2018-05-08T10:01:37.136Z,3832
2018-05-08T10:02:37.821Z,3824
2018-05-08T10:03:38.556Z,3828
2018-05-08T10:04:39.273Z,3836
2018-05-08T10:05:39.956Z,3832
2018-05-08T10:06:40.653Z,3804
2018-05-08T10:07:41.323Z,3756
2018-05-08T10:08:42.006Z,3700
2018-05-08T10:09:42.690Z,3676
2018-05-08T10:10:43.372Z,3660
2018-05-08T10:11:44.055Z,3636
2018-05-08T10:12:44.739Z,3624
2018-05-08T10:13:45.422Z,3616
2018-05-08T10:14:46.114Z,3604
2018-05-08T10:15:46.788Z,3572
2018-05-08T10:16:47.472Z,3544
2018-05-08T10:17:48.156Z,3536
2018-05-08T10:18:48.839Z,3536
2018-05-08T10:19:49.521Z,3556
2018-05-08T10:20:50.204Z,3580
2018-05-08T10:21:50.885Z,3612
2018-05-08T10:22:51.568Z,3628
2018-05-08T10:23:52.252Z,3620
2018-05-08T10:24:52.934Z,3604
2018-05-08T10:25:53.617Z,3596
2018-05-08T10:26:54.299Z,3580
2018-05-08T10:27:54.981Z,3564
2018-05-08T10:28:55.664Z,3548
2018-05-08T10:29:56.346Z,3564
2018-05-08T10:30:57.030Z,3520
2018-05-08T10:31:57.710Z,3540
2018-05-08T10:32:58.476Z,3536
2018-05-08T10:33:59.071Z,3544
2018-05-08T10:34:59.793Z,3560
2018-05-08T10:36:00.475Z,3568
2018-05-08T10:37:01.195Z,3552
2018-05-08T10:38:01.876Z,3540
2018-05-08T10:39:02.557Z,3536
2018-05-08T10:40:03.237Z,3528
2018-05-08T10:41:03.919Z,3540
2018-05-08T10:42:04.600Z,3552
2018-05-08T10:43:05.280Z,3540
2018-05-08T10:44:05.962Z,3548
2018-05-08T10:45:06.644Z,3556
2018-05-08T10:46:07.321Z,3564
2018-05-08T10:47:08.004Z,3572
2018-05-08T10:48:08.685Z,3556
2018-05-08T10:49:09.369Z,3568
2018-05-08T10:50:10.083Z,3576
2018-05-08T10:51:10.762Z,3576
2018-05-08T10:52:11.442Z,3584
2018-05-08T10:53:12.123Z,3580
2018-05-08T10:54:12.803Z,3580
2018-05-08T10:55:13.484Z,3576
2018-05-08T10:56:14.164Z,3592
2018-05-08T10:57:14.844Z,3588
2018-05-08T10:58:15.527Z,3588
2018-05-08T10:59:16.249Z,3592
2018-05-08T11:00:16.963Z,3604
2018-05-08T11:01:17.643Z,3596
2018-05-08T11:02:18.324Z,3596
2018-05-08T11:03:19.004Z,3604
2018-05-08T11:04:19.683Z,3608
2018-05-08T11:05:20.364Z,3612
2018-05-08T11:06:21.043Z,3628
2018-05-08T11:07:21.724Z,3640
2018-05-08T11:08:22.403Z,3640
2018-05-08T11:09:23.084Z,3648
2018-05-08T11:10:23.764Z,3656
2018-05-08T11:11:24.443Z,3672
2018-05-08T11:12:25.237Z,3680
2018-05-08T11:13:25.841Z,3676
2018-05-08T11:14:26.519Z,3676
2018-05-08T11:15:27.198Z,3684
2018-05-08T11:16:27.879Z,3680
2018-05-08T11:17:28.558Z,3680
2018-05-08T11:18:29.244Z,3612
2018-05-08T11:19:29.918Z,3724
2018-05-08T11:20:30.597Z,3708
2018-05-08T11:21:31.278Z,3716
2018-05-08T11:22:31.957Z,3712
2018-05-08T11:23:32.673Z,3720
2018-05-08T11:24:33.353Z,3732
2018-05-08T11:25:34.032Z,3732
2018-05-08T11:26:34.792Z,3744
2018-05-08T11:27:35.393Z,3760
2018-05-08T11:28:36.070Z,3788
2018-05-08T11:29:36.749Z,3788
2018-05-08T11:30:37.436Z,3792
2018-05-08T11:31:38.107Z,3804
2018-05-08T11:32:38.789Z,3820
2018-05-08T11:33:39.468Z,3824
2018-05-08T11:34:40.146Z,3900
2018-05-08T11:35:40.828Z,3904
2018-05-08T11:36:41.507Z,3932
2018-05-08T11:37:42.186Z,3940
2018-05-08T11:38:42.867Z,3944
2018-05-08T11:39:43.546Z,3936
2018-05-08T11:40:44.226Z,3944
2018-05-08T11:41:44.906Z,3948
2018-05-08T11:42:45.590Z,3964
2018-05-08T11:43:46.265Z,3996
2018-05-08T11:44:47.066Z,3988
2018-05-08T11:45:47.661Z,4000
2018-05-08T11:46:48.341Z,4020
2018-05-08T11:47:49.021Z,4024
2018-05-08T11:48:49.701Z,4032
2018-05-08T11:49:50.381Z,4044
2018-05-08T11:50:51.063Z,4072
2018-05-08T11:51:51.740Z,4084
2018-05-08T11:52:52.418Z,4084
2018-05-08T11:53:53.097Z,4100
2018-05-08T11:54:53.778Z,4108
2018-05-08T11:55:54.455Z,4112
2018-05-08T11:56:55.135Z,4120
2018-05-08T11:57:55.822Z,4148
2018-05-08T11:58:56.495Z,4176
2018-05-08T11:59:57.179Z,4180
2018-05-08T12:00:57.961Z,4192
2018-05-08T12:01:58.573Z,4208
2018-05-08T12:02:59.252Z,4204
2018-05-08T12:03:59.930Z,4216
2018-05-08T12:05:00.608Z,4224
2018-05-08T12:06:01.291Z,4248
2018-05-08T12:07:01.968Z,4268
2018-05-08T12:08:02.649Z,4284
2018-05-08T12:09:03.407Z,4292
2018-05-08T12:10:04.016Z,4280
2018-05-08T12:11:04.687Z,4288
2018-05-08T12:12:05.366Z,4312
2018-05-08T12:13:06.046Z,4312
2018-05-08T12:14:06.725Z,4316
2018-05-08T12:15:07.404Z,4316
2018-05-08T12:16:08.083Z,4340
2018-05-08T12:17:08.765Z,4348
2018-05-08T12:18:09.442Z,4364
2018-05-08T12:19:10.124Z,4376
2018-05-08T12:20:10.842Z,4396
2018-05-08T12:21:11.555Z,4420
2018-05-08T12:22:12.235Z,4428
2018-05-08T12:23:12.915Z,4424
2018-05-08T12:24:13.597Z,4420
2018-05-08T12:25:14.312Z,4424
2018-05-08T12:26:14.994Z,4420
2018-05-08T12:27:15.711Z,4432
2018-05-08T12:28:16.386Z,4468
2018-05-08T12:29:17.064Z,4460
2018-05-08T12:30:17.746Z,4452
2018-05-08T12:31:18.424Z,4440
2018-05-08T12:32:19.103Z,4448
2018-05-08T12:33:19.783Z,4460
2018-05-08T12:34:20.461Z,4452
2018-05-08T12:35:21.393Z,4484
2018-05-08T12:36:22.073Z,4500
2018-05-08T12:37:22.755Z,4516
2018-05-08T12:38:23.431Z,4536
2018-05-08T12:39:24.109Z,4520
2018-05-08T12:40:24.788Z,4496
2018-05-08T12:41:25.469Z,4512
2018-05-08T12:42:26.148Z,4508
2018-05-08T12:43:26.828Z,4536
2018-05-08T12:44:27.506Z,4560
2018-05-08T12:45:28.185Z,4568
2018-05-08T12:46:28.864Z,4588
2018-05-08T12:47:29.544Z,4592
2018-05-08T12:48:30.224Z,4612
2018-05-08T12:49:30.903Z,4584
2018-05-08T12:50:31.616Z,4556
2018-05-08T12:51:32.260Z,4580
2018-05-08T12:52:32.951Z,4588
2018-05-08T12:53:33.659Z,4620
2018-05-08T12:54:34.338Z,4604
2018-05-08T12:55:35.017Z,4612
2018-05-08T12:56:35.695Z,4708
2018-05-08T12:57:36.374Z,4712
2018-05-08T12:58:37.054Z,4732
2018-05-08T12:59:37.732Z,4756
2018-05-08T13:00:38.413Z,4748
2018-05-08T13:01:39.091Z,4740
2018-05-08T13:02:39.770Z,4752
2018-05-08T13:03:40.451Z,4748
2018-05-08T13:04:41.130Z,4756
2018-05-08T13:05:41.808Z,4772
2018-05-08T13:06:42.488Z,4784
2018-05-08T13:07:43.168Z,4768
2018-05-08T13:08:43.848Z,4756
2018-05-08T13:09:44.530Z,4776
2018-05-08T13:10:45.208Z,4804
2018-05-08T13:11:45.888Z,4784
2018-05-08T13:12:46.566Z,4800
2018-05-08T13:13:47.245Z,4808
2018-05-08T13:14:47.926Z,4796
2018-05-08T13:15:48.605Z,4812
2018-05-08T13:16:49.283Z,4804
2018-05-08T13:17:49.963Z,4820
2018-05-08T13:18:50.640Z,4848
2018-05-08T13:19:51.321Z,4836
2018-05-08T13:20:52.002Z,4852
2018-05-08T13:21:52.680Z,4848
2018-05-08T13:22:53.359Z,4836
2018-05-08T13:23:54.038Z,4836
2018-05-08T13:24:54.717Z,4840
2018-05-08T13:25:55.449Z,4872
2018-05-08T13:26:56.130Z,4872
2018-05-08T13:27:56.811Z,4912
2018-05-08T13:28:57.486Z,4924
2018-05-08T13:29:58.167Z,4920
2018-05-08T13:30:58.859Z,4900
2018-05-08T13:31:59.564Z,4908
2018-05-08T13:33:00.243Z,4940
2018-05-08T13:34:00.922Z,4948
2018-05-08T13:35:01.602Z,4952
2018-05-08T13:36:02.283Z,4908
2018-05-08T13:37:03.002Z,4908
2018-05-08T13:38:03.682Z,4960
2018-05-08T13:39:04.362Z,4956
2018-05-08T13:40:05.039Z,4964
2018-05-08T13:41:05.719Z,4964
2018-05-08T13:42:06.400Z,4988
2018-05-08T13:43:07.078Z,4980
2018-05-08T13:44:07.758Z,4944
2018-05-08T13:45:08.446Z,4956
2018-05-08T13:46:09.153Z,4948
2018-05-08T13:47:09.832Z,4884
2018-05-08T13:48:10.554Z,4960
2018-05-08T13:49:11.195Z,5000
2018-05-08T13:50:11.912Z,5004